Terminal Aerodrome Forecast
Issued by NWS

Home | Current Version | Previous Version | Text Only | Print | Product List | Glossary On
Versions: 1 2 3 4 5 6 7 8 9 10 11 12 13 14 15 16 17
000
FTUS45 KTFX 282327
TAFHLN
TAF
KHLN 282327Z 2900/2924 28018G23KT P6SM SCT070 SCT250
     FM290300 VRB06KT P6SM SCT250
     FM292000 24010G18KT P6SM SCT100 BKN250=

USA.gov is the U.S. government's official web portal to all federal, state and local government web resources and services.